createdAt,value
2023-05-08T00:00:31.287Z,3.55
2023-05-08T00:02:57.194Z,3.50
2023-05-08T00:05:23.052Z,3.90
2023-05-08T00:07:50.496Z,3.65
2023-05-08T00:10:16.384Z,3.83
2023-05-08T00:12:42.199Z,3.42
2023-05-08T00:15:08.448Z,3.85
2023-05-08T00:17:34.259Z,3.60
2023-05-08T00:20:00.116Z,3.40
2023-05-08T00:22:25.890Z,4.20
2023-05-08T00:24:51.611Z,4.03
2023-05-08T00:27:17.418Z,3.90
2023-05-08T00:29:43.359Z,4.05
2023-05-08T00:32:09.961Z,3.85
2023-05-08T00:34:35.729Z,3.92
2023-05-08T00:37:02.956Z,4.03
2023-05-08T00:39:28.739Z,4.07
2023-05-08T00:41:54.455Z,4.30
2023-05-08T00:44:20.162Z,4.40
2023-05-08T00:46:46.052Z,4.03
2023-05-08T00:49:13.803Z,4.13
2023-05-08T00:51:40.506Z,4.45
2023-05-08T00:54:06.402Z,4.35
2023-05-08T00:56:33.884Z,3.58
2023-05-08T00:59:00.284Z,4.70
2023-05-08T01:01:26.133Z,4.30
2023-05-08T01:03:52.285Z,3.85
2023-05-08T01:06:18.195Z,4.15
2023-05-08T01:08:44.583Z,4.10
2023-05-08T01:11:30.657Z,4.43
2023-05-08T01:14:07.166Z,4.13
2023-05-08T01:16:42.021Z,3.95
2023-05-08T01:19:22.623Z,4.35
2023-05-08T01:22:08.402Z,3.92
2023-05-08T01:24:41.909Z,3.75
2023-05-08T01:27:26.450Z,3.88
2023-05-08T01:29:52.179Z,3.35
2023-05-08T01:32:21.151Z,4.72
2023-05-08T01:35:05.391Z,4.10
2023-05-08T01:37:51.094Z,4.30
2023-05-08T01:40:19.405Z,4.80
2023-05-08T01:43:04.012Z,5.25
2023-05-08T01:45:35.336Z,4.90
2023-05-08T01:48:05.843Z,4.35
2023-05-08T01:50:36.986Z,5.03
2023-05-08T01:53:07.408Z,5.07
2023-05-08T01:55:34.900Z,4.63
2023-05-08T01:58:01.353Z,4.47
2023-05-08T02:00:27.881Z,4.75
2023-05-08T02:02:54.447Z,4.50
2023-05-08T02:05:21.428Z,4.90
2023-05-08T02:07:48.428Z,5.30
2023-05-08T02:10:15.010Z,5.18
2023-05-08T02:12:41.861Z,4.80
2023-05-08T02:15:08.463Z,5.70
2023-05-08T02:17:35.904Z,4.82
2023-05-08T02:20:02.910Z,6.25
2023-05-08T02:22:29.543Z,4.97
2023-05-08T02:24:56.413Z,5.85
2023-05-08T02:27:23.845Z,5.35
2023-05-08T02:29:50.592Z,5.13
2023-05-08T02:32:17.742Z,6.10
2023-05-08T02:34:54.898Z,5.97
2023-05-08T02:37:25.595Z,5.88
2023-05-08T02:39:53.228Z,5.65
2023-05-08T02:42:18.975Z,5.85
2023-05-08T02:44:44.740Z,5.78
2023-05-08T02:47:16.221Z,5.88
2023-05-08T02:49:45.790Z,5.53
2023-05-08T02:52:30.031Z,5.32
2023-05-08T02:54:55.845Z,5.28
2023-05-08T02:57:25.937Z,5.88
2023-05-08T02:59:58.944Z,5.45
2023-05-08T03:02:45.004Z,6.07
2023-05-08T03:05:14.523Z,5.68
2023-05-08T03:07:41.190Z,6.22
2023-05-08T03:10:10.560Z,6.13
2023-05-08T03:12:40.657Z,5.72
2023-05-08T03:15:11.473Z,5.32
2023-05-08T03:17:38.784Z,5.82
2023-05-08T03:20:06.466Z,6.07
2023-05-08T03:22:34.017Z,6.60
2023-05-08T03:25:00.968Z,6.85
2023-05-08T03:27:28.118Z,6.22
2023-05-08T03:29:54.713Z,6.30
2023-05-08T03:32:21.501Z,5.55
2023-05-08T03:34:47.938Z,6.18
2023-05-08T03:37:13.837Z,5.50
2023-05-08T03:39:39.591Z,5.43
2023-05-08T03:42:05.429Z,6.13
2023-05-08T03:44:31.502Z,6.28
2023-05-08T03:46:57.820Z,6.45
2023-05-08T03:49:24.722Z,6.22
2023-05-08T03:51:50.707Z,6.43
2023-05-08T03:54:16.424Z,5.90
2023-05-08T03:56:45.278Z,5.03
2023-05-08T03:59:16.929Z,5.35
2023-05-08T04:01:51.024Z,5.93
2023-05-08T04:04:18.101Z,6.03
2023-05-08T04:07:04.463Z,5.25
2023-05-08T04:09:33.187Z,5.47
2023-05-08T04:11:58.891Z,4.60
2023-05-08T04:14:26.991Z,4.80
2023-05-08T04:16:55.571Z,4.40
2023-05-08T04:19:26.683Z,4.63
2023-05-08T04:21:55.135Z,4.30
2023-05-08T04:24:21.772Z,5.15
2023-05-08T04:26:48.189Z,4.60
2023-05-08T04:29:14.014Z,4.72
2023-05-08T04:31:39.864Z,4.30
2023-05-08T04:34:08.114Z,4.60
2023-05-08T04:36:33.907Z,4.38
2023-05-08T04:39:00.058Z,4.80
2023-05-08T04:41:26.409Z,4.70
2023-05-08T04:43:53.112Z,4.22
2023-05-08T04:46:19.733Z,4.40
2023-05-08T04:48:45.943Z,4.53
2023-05-08T04:51:12.956Z,3.50
2023-05-08T04:53:39.092Z,4.30
2023-05-08T04:56:04.939Z,4.00
2023-05-08T04:58:30.749Z,3.53
2023-05-08T05:00:57.133Z,4.32
2023-05-08T05:03:23.689Z,3.85
2023-05-08T05:05:56.599Z,4.65
2023-05-08T05:08:22.997Z,4.07
2023-05-08T05:10:49.649Z,4.32
2023-05-08T05:13:16.296Z,3.17
2023-05-08T05:15:42.997Z,3.83
2023-05-08T05:18:11.097Z,3.63
2023-05-08T05:20:37.509Z,3.45
2023-05-08T05:23:04.912Z,3.97
2023-05-08T05:25:35.017Z,3.90
2023-05-08T05:28:01.538Z,3.13
2023-05-08T05:30:36.863Z,3.03
2023-05-08T05:33:06.685Z,3.50
2023-05-08T05:35:34.695Z,3.78
2023-05-08T05:38:00.828Z,4.07
2023-05-08T05:40:29.012Z,4.07
2023-05-08T05:46:33.674Z,3.38
2023-05-08T05:49:00.539Z,3.40
2023-05-08T05:51:29.562Z,2.92
2023-05-08T05:54:00.888Z,2.45
2023-05-08T05:56:32.763Z,3.00
2023-05-08T05:58:59.269Z,4.53
2023-05-08T06:01:26.497Z,3.17
2023-05-08T06:03:56.853Z,3.38
2023-05-08T06:14:38.634Z,3.50
2023-05-08T06:19:54.221Z,3.28
2023-05-08T06:22:33.615Z,3.40
2023-05-08T06:25:04.011Z,3.13
2023-05-08T06:27:39.422Z,2.85
2023-05-08T09:13:36.586Z,2.58
2023-05-08T09:18:47.070Z,1.45
2023-05-08T09:21:13.767Z,1.30
2023-05-08T09:23:59.672Z,1.85
2023-05-08T09:26:34.543Z,1.30
2023-05-08T09:32:19.291Z,1.45
2023-05-08T09:34:52.821Z,1.85
2023-05-08T09:37:20.765Z,2.13
2023-05-08T09:39:53.524Z,1.48
2023-05-08T09:42:22.185Z,1.80
2023-05-08T09:47:43.274Z,1.15
2023-05-08T09:50:21.355Z,1.50
2023-05-08T09:55:47.514Z,1.33
2023-05-08T09:58:14.739Z,1.70
2023-05-08T10:01:17.161Z,1.30
2023-05-08T10:03:50.956Z,1.27
2023-05-08T10:06:18.580Z,1.20
2023-05-08T10:08:48.763Z,1.90
2023-05-08T10:11:23.558Z,1.77
2023-05-08T10:16:42.377Z,1.45
2023-05-08T11:48:16.877Z,1.27
2023-05-08T11:50:44.544Z,1.70
2023-05-08T11:53:11.836Z,1.38
2023-05-08T11:55:39.520Z,1.17
2023-05-08T11:58:40.700Z,1.40
2023-05-08T12:01:08.946Z,1.08
2023-05-08T12:03:38.115Z,1.50
2023-05-08T12:08:49.717Z,1.58
2023-05-08T12:14:05.324Z,1.20
2023-05-08T12:16:41.877Z,1.45
2023-05-08T12:19:14.731Z,1.50
2023-05-08T12:24:32.321Z,1.88
2023-05-08T12:37:56.508Z,1.08
2023-05-08T12:48:45.621Z,1.50
2023-05-08T12:51:16.545Z,1.42
2023-05-08T15:07:26.252Z,1.58
2023-05-08T15:12:34.225Z,1.58
2023-05-08T15:15:13.454Z,1.73
2023-05-08T15:17:51.769Z,1.13
2023-05-08T15:25:50.563Z,1.27
2023-05-08T15:30:58.447Z,1.98
2023-05-08T15:33:26.959Z,1.10
2023-05-08T15:38:38.432Z,1.48
2023-05-08T15:41:07.508Z,1.30
2023-05-08T15:43:34.893Z,1.15
2023-05-08T15:46:03.677Z,1.20
2023-05-08T15:48:34.501Z,1.52
2023-05-08T15:51:01.352Z,0.90
2023-05-08T15:53:30.253Z,0.88
2023-05-08T15:56:01.863Z,1.42
2023-05-08T16:59:51.719Z,1.55
2023-05-08T17:02:18.999Z,1.50
2023-05-08T17:04:50.894Z,1.45
2023-05-08T17:15:14.860Z,1.60
2023-05-08T17:17:41.571Z,1.55
2023-05-08T17:20:08.531Z,1.65
2023-05-08T17:22:35.616Z,1.63
2023-05-08T17:25:01.889Z,2.60
2023-05-08T17:27:40.009Z,2.08
2023-05-08T17:32:54.049Z,1.75
2023-05-08T17:35:23.029Z,1.60
2023-05-08T17:43:16.994Z,1.95
2023-05-08T17:45:44.926Z,2.35
2023-05-08T17:50:52.109Z,1.55
2023-05-08T17:53:20.483Z,1.73
2023-05-08T17:55:51.088Z,1.98
2023-05-08T18:00:57.540Z,1.63
2023-05-08T18:03:26.361Z,1.73
2023-05-08T18:05:56.148Z,1.70
2023-05-08T18:11:03.704Z,1.65
2023-05-08T18:13:30.852Z,1.63
2023-05-08T18:15:57.576Z,1.30
2023-05-08T18:18:26.072Z,1.40
2023-05-08T18:20:56.381Z,1.40
2023-05-08T18:23:26.472Z,1.90
2023-05-08T18:28:58.233Z,1.60
2023-05-08T18:31:24.858Z,1.95
2023-05-08T18:33:51.811Z,1.35
2023-05-08T18:36:18.011Z,1.67
2023-05-08T18:38:48.213Z,1.55
2023-05-08T18:41:14.514Z,1.60
2023-05-08T18:43:41.833Z,1.95
2023-05-08T18:46:08.857Z,1.73
2023-05-08T18:48:36.440Z,1.75
2023-05-08T18:51:03.259Z,1.52
2023-05-08T18:53:31.750Z,1.98
2023-05-08T18:55:59.111Z,1.40
2023-05-08T18:58:52.975Z,1.42
2023-05-08T19:01:22.803Z,1.63
2023-05-08T19:03:49.309Z,1.85
2023-05-08T19:06:15.610Z,1.58
2023-05-08T19:08:42.563Z,1.33
2023-05-08T19:11:14.766Z,1.95
2023-05-08T19:13:41.357Z,1.52
2023-05-08T19:16:08.182Z,1.63
2023-05-08T19:18:34.854Z,1.48
2023-05-08T19:21:02.292Z,1.50
2023-05-08T19:23:28.457Z,1.85
2023-05-08T19:25:57.145Z,1.60
2023-05-08T19:28:26.967Z,1.92
2023-05-08T19:30:53.148Z,2.20
2023-05-08T19:36:02.676Z,1.58
2023-05-08T19:38:28.839Z,2.00
2023-05-08T19:40:57.698Z,1.75
2023-05-08T19:43:26.477Z,1.63
2023-05-08T19:45:52.691Z,2.35
2023-05-08T19:48:20.173Z,1.50
2023-05-08T19:50:48.340Z,1.98
2023-05-08T19:53:14.490Z,2.38
2023-05-08T19:55:40.578Z,1.95
2023-05-08T19:58:10.776Z,1.88
2023-05-08T20:00:55.283Z,2.10
2023-05-08T20:03:24.894Z,1.83
2023-05-08T20:05:51.690Z,2.20
2023-05-08T20:08:18.384Z,1.67
2023-05-08T20:10:49.171Z,2.22
2023-05-08T20:15:49.526Z,2.08
2023-05-08T20:18:16.186Z,1.70
2023-05-08T20:20:45.723Z,2.53
2023-05-08T20:23:11.960Z,2.55
2023-05-08T20:25:38.265Z,2.10
2023-05-08T20:28:05.714Z,2.20
2023-05-08T20:30:44.206Z,3.42
2023-05-08T20:33:12.543Z,2.80
2023-05-08T20:35:38.820Z,2.65
2023-05-08T20:38:05.500Z,2.45
2023-05-08T20:40:32.042Z,2.30
2023-05-08T20:42:58.715Z,2.88
2023-05-08T20:45:24.828Z,2.05
2023-05-08T20:47:53.412Z,2.83
2023-05-08T20:50:19.916Z,1.88
2023-05-08T20:52:49.616Z,2.33
2023-05-08T20:55:16.080Z,2.67
2023-05-08T20:57:44.300Z,2.50
2023-05-08T21:00:23.378Z,2.30
2023-05-08T21:02:53.894Z,2.67
2023-05-08T21:08:10.335Z,2.40
2023-05-08T21:10:52.645Z,2.38
2023-05-08T21:13:20.442Z,2.22
2023-05-08T21:15:52.539Z,2.17
2023-05-08T21:18:18.615Z,2.55
2023-05-08T21:20:50.080Z,2.25
2023-05-08T21:23:16.854Z,2.00
2023-05-08T21:25:44.915Z,2.50
2023-05-08T21:28:11.368Z,2.58
2023-05-08T21:30:52.759Z,2.28
2023-05-08T21:33:18.812Z,2.40
2023-05-08T21:35:46.381Z,2.28
2023-05-08T21:38:13.014Z,3.03
2023-05-08T21:40:39.110Z,2.80
2023-05-08T21:43:05.092Z,2.40
2023-05-08T21:45:31.868Z,2.50
2023-05-08T21:47:59.010Z,2.42
2023-05-08T21:53:13.366Z,2.45
2023-05-08T21:55:39.535Z,2.88
2023-05-08T21:58:06.061Z,3.00
2023-05-08T22:00:31.832Z,2.50
2023-05-08T22:02:57.639Z,3.30
2023-05-08T22:05:23.798Z,2.85
2023-05-08T22:07:49.688Z,3.05
2023-05-08T22:10:15.672Z,2.97
2023-05-08T22:12:41.515Z,3.28
2023-05-08T22:15:17.973Z,2.60
2023-05-08T22:17:48.976Z,2.55
2023-05-08T22:20:14.756Z,3.05
2023-05-08T22:22:40.760Z,2.60
2023-05-08T22:25:07.085Z,2.67
2023-05-08T22:27:32.866Z,2.70
2023-05-08T22:30:00.446Z,3.17
2023-05-08T22:32:29.292Z,2.75
2023-05-08T22:34:55.203Z,3.20
2023-05-08T22:37:21.562Z,2.58
2023-05-08T22:39:47.671Z,3.55
2023-05-08T22:42:14.038Z,3.40
2023-05-08T22:44:40.107Z,3.45
2023-05-08T22:47:05.957Z,3.25
2023-05-08T22:49:31.786Z,2.90
2023-05-08T22:51:57.571Z,3.20
2023-05-08T22:54:23.303Z,2.72
2023-05-08T22:56:49.014Z,2.90
2023-05-08T22:59:14.736Z,3.25
2023-05-08T23:01:40.533Z,3.08
2023-05-08T23:04:06.380Z,2.97
2023-05-08T23:06:32.428Z,2.78
2023-05-08T23:08:58.234Z,3.28
2023-05-08T23:11:24.439Z,2.95
2023-05-08T23:13:50.206Z,2.75
2023-05-08T23:16:15.982Z,3.13
2023-05-08T23:18:41.741Z,3.28
2023-05-08T23:21:07.658Z,3.10
2023-05-08T23:23:34.066Z,3.15
2023-05-08T23:26:00.484Z,3.92
2023-05-08T23:28:26.577Z,2.67
2023-05-08T23:30:52.436Z,3.50
2023-05-08T23:33:18.503Z,3.63
2023-05-08T23:35:44.682Z,3.33
2023-05-08T23:38:10.411Z,2.95
2023-05-08T23:40:36.121Z,3.25
2023-05-08T23:43:01.858Z,2.60
2023-05-08T23:45:27.905Z,3.90
2023-05-08T23:47:53.638Z,3.13
2023-05-08T23:50:19.405Z,3.00
2023-05-08T23:52:45.262Z,3.13
2023-05-08T23:55:11.109Z,3.40
2023-05-08T23:57:36.902Z,3.72
